Appomattox, Virginia
Current Conditions -  °F | °C
As of 3:35 AM on Friday 24 Oct 2014 (Local Time) from K0V4 Reporting Station
Clear Clear  
Wind Chill: 46°   Ceiling: Unl
Heat Index: 47°   Visibility: 10mi
Dew Point: 43°   Wind: 5mph
Humidity: 84%   Direction: 270°W
Pressure: 30"   Gusts: NA
Location:  37.36°N, 78.83°W
Report Text: K0V4 240735Z AUTO 27004KT 10SM CLR 09/06 A3000 RMK AO1 T00860061
Loading
Personal Weather Stations






























Interactive Weather Map
Tropical Storm Tracking
New forecast layout! Learn more

10-Day Weather Forecast

Advertisements
Track Severe Weather on mobile